Time;durP1;ratioP1;P1;durP2;ratioP2;P2;SDS_P1;SDS_P2;PMS_P1;PMS_P2;Temp;Humidity;BMP_temperature;BMP_pressure;BME280_temperature;BME280_humidity;BME280_pressure;Samples;Min_cycle;Max_cycle;Signal;HPM_P1;HPM_P2
2023/04/21 00:02:01;;;;;;;14.53;13.03;;;7.40;30.40;;;;;;5095019;28;20644;-71
2023/04/21 00:04:27;;;;;;;20.97;14.07;;;7.40;35.50;;;;;;5094878;28;20168;-70
2023/04/21 00:06:53;;;;;;;15.20;13.13;;;7.40;37.30;;;;;;5094976;28;20180;-69
2023/04/21 00:09:20;;;;;;;16.43;14.07;;;7.40;36.80;;;;;;5094636;28;20517;-69
2023/04/21 00:11:45;;;;;;;15.27;13.50;;;7.40;39.60;;;;;;5094705;28;20196;-70
2023/04/21 00:14:11;;;;;;;16.70;13.23;;;7.30;41.50;;;;;;5094867;28;20548;-69
2023/04/21 00:16:37;;;;;;;16.03;13.63;;;7.30;41.90;;;;;;5094401;28;20163;-70
2023/04/21 00:19:05;;;;;;;15.97;13.80;;;7.30;41.50;;;;;;5094715;28;20512;-69
2023/04/21 00:21:32;;;;;;;15.17;13.23;;;7.30;43.70;;;;;;5094584;28;20191;-69
2023/04/21 00:23:57;;;;;;;17.07;13.87;;;7.40;45.40;;;;;;5094402;28;20176;-69
2023/04/21 00:26:23;;;;;;;17.90;14.20;;;7.40;46.00;;;;;;5094345;28;20638;-70
2023/04/21 00:28:49;;;;;;;17.97;14.33;;;7.40;49.20;;;;;;5094539;28;20635;-69
2023/04/21 00:31:14;;;;;;;17.60;14.37;;;7.40;50.30;;;;;;5093156;28;20172;-70
2023/04/21 00:33:40;;;;;;;17.53;14.90;;;7.50;52.80;;;;;;5094485;28;20217;-69
2023/04/21 00:36:06;;;;;;;17.47;15.00;;;7.60;53.10;;;;;;5093998;28;20210;-69
2023/04/21 00:38:31;;;;;;;16.30;14.57;;;7.70;52.50;;;;;;5092757;28;20310;-69
2023/04/21 00:40:57;;;;;;;16.97;15.03;;;7.80;49.60;;;;;;5093892;28;20171;-71
2023/04/21 00:43:24;;;;;;;19.63;16.13;;;7.80;49.60;;;;;;5094471;28;20180;-70
2023/04/21 00:45:50;;;;;;;17.63;15.00;;;7.90;47.20;;;;;;5093985;28;20172;-71
2023/04/21 00:48:16;;;;;;;20.07;15.30;;;7.90;49.60;;;;;;5094258;28;20661;-69
2023/04/21 00:50:43;;;;;;;18.47;15.37;;;7.80;56.90;;;;;;5093676;28;20568;-71
2023/04/21 00:53:11;;;;;;;22.43;17.37;;;7.80;62.90;;;;;;5093787;28;20306;-69
2023/04/21 00:55:37;;;;;;;18.33;15.47;;;7.70;68.90;;;;;;5093734;28;20171;-70
2023/04/21 00:58:03;;;;;;;17.53;15.43;;;7.90;69.60;;;;;;5093969;28;20172;-70
2023/04/21 01:00:29;;;;;;;17.70;15.80;;;7.80;73.20;;;;;;5093700;28;20221;-69
2023/04/21 01:02:55;;;;;;;19.37;16.30;;;7.70;87.20;;;;;;5093901;28;20179;-69
2023/04/21 01:05:21;;;;;;;18.90;15.83;;;7.80;94.20;;;;;;5093721;28;20178;-69
2023/04/21 01:07:47;;;;;;;19.00;16.00;;;7.70;95.20;;;;;;5093564;28;20168;-70
2023/04/21 01:10:14;;;;;;;20.13;17.13;;;7.70;99.30;;;;;;5093847;28;20184;-71
2023/04/21 01:12:46;;;;;;;21.60;18.07;;;7.70;99.90;;;;;;5093476;28;20302;-70
2023/04/21 01:15:16;;;;;;;21.63;18.27;;;7.70;99.90;;;;;;5093654;28;20645;-70
2023/04/21 01:17:42;;;;;;;25.00;20.10;;;7.60;99.90;;;;;;5093558;28;20544;-70
2023/04/21 01:20:11;;;;;;;23.63;19.87;;;7.60;99.90;;;;;;5093550;28;20183;-70
2023/04/21 01:22:38;;;;;;;25.27;20.87;;;7.50;99.90;;;;;;5093084;28;20725;-69
2023/04/21 01:25:04;;;;;;;25.33;21.03;;;7.40;99.90;;;;;;5093731;28;20177;-71
2023/04/21 01:27:30;;;;;;;27.57;20.97;;;7.40;99.90;;;;;;5093250;28;20183;-69
2023/04/21 01:29:56;;;;;;;25.87;22.03;;;7.40;99.90;;;;;;5093511;28;20172;-71
2023/04/21 01:32:25;;;;;;;26.43;22.30;;;7.40;99.90;;;;;;5093276;28;20227;-70
2023/04/21 01:34:51;;;;;;;27.43;22.97;;;7.50;99.90;;;;;;5093400;28;20267;-70
2023/04/21 01:37:20;;;;;;;32.03;24.33;;;7.40;99.90;;;;;;5092951;28;20219;-69
2023/04/21 01:39:51;;;;;;;26.40;21.63;;;7.40;99.90;;;;;;5093240;28;20164;-69
2023/04/21 01:42:17;;;;;;;29.50;23.77;;;7.40;99.90;;;;;;5092597;28;20548;-69
2023/04/21 01:44:45;;;;;;;30.50;22.70;;;7.40;99.90;;;;;;5093368;28;20627;-70
2023/04/21 01:47:12;;;;;;;31.97;24.37;;;7.40;99.90;;;;;;5093049;28;20176;-70
2023/04/21 01:49:38;;;;;;;32.53;24.63;;;7.40;99.90;;;;;;5092914;28;20255;-70
2023/04/21 01:52:03;;;;;;;32.77;23.70;;;7.40;99.90;;;;;;5093223;28;20704;-70
2023/04/21 01:54:29;;;;;;;33.83;25.63;;;7.40;99.90;;;;;;5093339;28;20168;-69
2023/04/21 01:56:55;;;;;;;33.73;27.30;;;7.40;99.90;;;;;;5093066;28;20186;-69
2023/04/21 01:59:21;;;;;;;34.60;27.30;;;7.30;99.90;;;;;;5093169;28;20247;-70
2023/04/21 02:01:46;;;;;;;35.23;26.23;;;7.30;99.90;;;;;;5091626;28;20175;-69
2023/04/21 02:04:12;;;;;;;37.00;27.20;;;7.40;99.90;;;;;;5092688;28;20179;-69
2023/04/21 02:06:38;;;;;;;36.80;28.90;;;7.30;99.90;;;;;;5092738;28;20258;-69
2023/04/21 02:09:04;;;;;;;40.40;30.30;;;7.30;99.90;;;;;;5092892;28;20168;-68
2023/04/21 02:11:29;;;;;;;42.00;29.50;;;7.30;99.90;;;;;;5091753;28;20601;-69
2023/04/21 02:13:55;;;;;;;38.17;27.83;;;7.30;99.90;;;;;;5093165;28;20184;-69
2023/04/21 02:16:25;;;;;;;45.30;33.33;;;7.30;99.90;;;;;;5092825;28;20172;-70
2023/04/21 02:18:52;;;;;;;43.90;31.63;;;7.30;99.90;;;;;;5092744;28;20176;-70
2023/04/21 02:21:19;;;;;;;41.90;30.17;;;7.30;99.90;;;;;;5092718;28;20646;-71
2023/04/21 02:23:45;;;;;;;43.27;31.33;;;7.30;99.90;;;;;;5092847;28;20301;-69
2023/04/21 02:26:10;;;;;;;44.40;31.87;;;7.30;99.90;;;;;;5092684;28;20258;-69
2023/04/21 02:28:36;;;;;;;42.43;30.03;;;7.20;99.90;;;;;;5093127;28;20187;-69
2023/04/21 02:31:02;;;;;;;42.07;30.70;;;7.20;99.90;;;;;;5092814;28;20180;-70
2023/04/21 02:33:27;;;;;;;44.43;29.67;;;7.20;99.90;;;;;;5091111;28;20756;-69
2023/04/21 02:35:53;;;;;;;44.27;33.23;;;7.20;99.90;;;;;;5092758;28;20692;-69
2023/04/21 02:38:18;;;;;;;42.47;31.87;;;7.20;99.90;;;;;;5092441;28;20687;-69
2023/04/21 02:40:44;;;;;;;47.63;33.47;;;7.30;99.90;;;;;;5092402;28;20168;-69
2023/04/21 02:43:11;;;;;;;43.87;32.43;;;7.30;99.90;;;;;;5092604;28;20663;-70
2023/04/21 02:45:37;;;;;;;49.53;33.37;;;7.30;99.90;;;;;;5092838;28;20156;-69
2023/04/21 02:48:02;;;;;;;45.63;33.83;;;7.30;99.90;;;;;;5092199;28;20501;-70
2023/04/21 02:50:28;;;;;;;48.17;34.13;;;7.30;99.90;;;;;;5092626;28;20252;-68
2023/04/21 02:52:54;;;;;;;49.07;34.20;;;7.30;99.90;;;;;;5092285;28;20208;-69
2023/04/21 02:55:21;;;;;;;49.50;35.40;;;7.30;99.90;;;;;;5095106;28;20204;-70
2023/04/21 02:57:47;;;;;;;51.43;35.50;;;7.30;99.90;;;;;;5096088;28;20187;-69
2023/04/21 03:00:13;;;;;;;51.00;36.87;;;7.30;99.90;;;;;;5096220;28;20245;-69
2023/04/21 03:02:39;;;;;;;51.73;37.40;;;7.30;99.90;;;;;;5095635;28;20180;-69
2023/04/21 03:05:05;;;;;;;51.57;36.17;;;7.40;99.90;;;;;;5095959;28;20259;-69
2023/04/21 03:07:31;;;;;;;47.93;34.83;;;7.40;99.90;;;;;;5095788;28;20171;-68
2023/04/21 03:09:56;;;;;;;49.27;37.13;;;7.30;99.90;;;;;;5096342;28;20707;-69
2023/04/21 03:12:22;;;;;;;50.97;34.20;;;7.30;99.90;;;;;;5095843;28;20212;-69
2023/04/21 03:14:48;;;;;;;50.43;36.03;;;7.30;99.90;;;;;;5095905;28;20547;-68
2023/04/21 03:17:13;;;;;;;52.10;37.90;;;7.30;99.90;;;;;;5095317;28;20183;-69
2023/04/21 03:19:39;;;;;;;53.97;38.03;;;7.30;99.90;;;;;;5095716;28;20657;-69
2023/04/21 03:22:05;;;;;;;52.87;36.50;;;7.40;99.90;;;;;;5095200;28;20175;-69
2023/04/21 03:24:31;;;;;;;54.40;37.53;;;7.40;99.90;;;;;;5095983;28;20176;-69
2023/04/21 03:26:57;;;;;;;53.80;36.30;;;7.30;99.90;;;;;;5095697;28;20191;-68
2023/04/21 03:29:22;;;;;;;54.30;37.47;;;7.40;99.90;;;;;;5095680;28;20207;-69
2023/04/21 03:31:48;;;;;;;53.50;37.90;;;7.40;99.90;;;;;;5095160;28;20225;-69
2023/04/21 03:34:14;;;;;;;55.73;39.27;;;7.40;99.90;;;;;;5095197;28;20519;-69
2023/04/21 03:36:39;;;;;;;52.87;37.43;;;7.50;99.90;;;;;;5094187;28;20280;-70
2023/04/21 03:39:05;;;;;;;47.20;30.83;;;7.50;99.90;;;;;;5095065;28;20213;-69
2023/04/21 03:41:32;;;;;;;51.93;37.00;;;7.40;99.90;;;;;;5094972;28;20224;-69
2023/04/21 03:43:58;;;;;;;49.53;34.43;;;7.40;99.90;;;;;;5095177;28;20209;-69
2023/04/21 03:46:24;;;;;;;52.63;36.83;;;7.40;99.90;;;;;;5094701;28;20172;-70
2023/04/21 03:48:50;;;;;;;51.70;36.83;;;7.30;99.90;;;;;;5094831;28;20183;-69
2023/04/21 03:51:15;;;;;;;54.90;38.93;;;7.30;99.90;;;;;;5094786;28;20250;-68
2023/04/21 03:53:41;;;;;;;54.63;39.30;;;7.30;99.90;;;;;;5076333;28;20211;-69
2023/04/21 03:56:07;;;;;;;53.00;37.50;;;7.40;99.90;;;;;;5094816;28;20183;-69
2023/04/21 03:58:33;;;;;;;54.07;35.47;;;7.50;99.90;;;;;;5094399;28;20172;-69
2023/04/21 04:00:59;;;;;;;54.80;38.67;;;7.40;99.90;;;;;;5094323;28;20233;-68
2023/04/21 04:03:24;;;;;;;54.60;37.80;;;7.30;99.90;;;;;;5094623;28;20221;-68
2023/04/21 04:05:50;;;;;;;59.23;39.53;;;7.30;99.90;;;;;;5093812;28;20529;-68
2023/04/21 04:08:16;;;;;;;54.70;36.90;;;7.30;99.90;;;;;;5094204;28;20179;-68
2023/04/21 04:10:41;;;;;;;56.10;38.93;;;7.30;99.90;;;;;;5094257;28;20172;-68
2023/04/21 04:13:07;;;;;;;55.30;37.97;;;7.30;99.90;;;;;;5093255;28;20290;-68
2023/04/21 04:15:32;;;;;;;55.47;37.53;;;7.30;99.90;;;;;;5094340;28;20172;-68
2023/04/21 04:17:58;;;;;;;55.27;37.07;;;7.30;99.90;;;;;;5093994;28;20172;-69
2023/04/21 04:20:24;;;;;;;56.50;39.13;;;7.20;99.90;;;;;;5092981;28;20180;-69
2023/04/21 04:22:49;;;;;;;54.27;37.67;;;7.20;99.90;;;;;;5094053;28;20179;-69
2023/04/21 04:25:15;;;;;;;56.77;37.53;;;7.30;99.90;;;;;;5094245;28;20259;-70
2023/04/21 04:27:43;;;;;;;58.53;40.43;;;7.30;99.90;;;;;;5093720;28;20163;-69
2023/04/21 04:30:10;;;;;;;54.57;38.87;;;7.30;99.90;;;;;;5094060;28;20234;-69
2023/04/21 04:32:38;;;;;;;52.70;33.03;;;7.40;99.90;;;;;;5093718;28;20203;-69
2023/04/21 04:35:04;;;;;;;53.67;36.73;;;7.40;99.90;;;;;;5094194;28;20174;-69
2023/04/21 04:37:30;;;;;;;53.00;36.83;;;7.30;99.90;;;;;;5093622;28;20182;-70
2023/04/21 04:39:56;;;;;;;55.50;36.83;;;7.30;99.90;;;;;;5093948;28;20175;-69
2023/04/21 04:42:24;;;;;;;55.63;38.40;;;7.30;99.90;;;;;;5093391;28;20219;-68
2023/04/21 04:44:52;;;;;;;51.03;36.40;;;7.30;99.90;;;;;;5093325;28;20255;-68
2023/04/21 04:47:18;;;;;;;52.87;36.33;;;7.30;99.90;;;;;;5093795;28;20202;-68
2023/04/21 04:49:44;;;;;;;55.50;38.87;;;7.30;99.90;;;;;;5093041;28;20171;-69
2023/04/21 04:52:10;;;;;;;56.80;39.43;;;7.40;99.90;;;;;;5093466;28;20199;-69
2023/04/21 04:54:35;;;;;;;55.50;38.50;;;7.40;99.90;;;;;;5092063;28;20175;-69
2023/04/21 04:57:01;;;;;;;56.37;39.20;;;7.40;99.90;;;;;;5093312;28;20172;-70
2023/04/21 04:59:27;;;;;;;53.93;37.97;;;7.40;99.90;;;;;;5092762;28;20639;-68
2023/04/21 05:01:53;;;;;;;54.47;35.83;;;7.40;99.90;;;;;;5093068;28;20168;-69
2023/04/21 05:04:19;;;;;;;55.00;38.20;;;7.50;99.90;;;;;;5093382;28;20217;-70
2023/04/21 05:06:45;;;;;;;56.37;39.50;;;7.40;99.90;;;;;;5093553;28;20172;-69
2023/04/21 05:09:11;;;;;;;52.33;32.70;;;7.50;99.90;;;;;;5092736;28;20196;-69
2023/04/21 05:11:36;;;;;;;53.90;36.67;;;7.40;99.90;;;;;;5093064;28;20174;-69
2023/04/21 05:14:02;;;;;;;52.33;36.33;;;7.40;99.90;;;;;;5092221;28;20270;-69
2023/04/21 05:16:28;;;;;;;49.13;33.33;;;7.50;99.90;;;;;;5092508;28;20164;-69
2023/04/21 05:18:53;;;;;;;51.23;36.07;;;7.70;99.90;;;;;;5092818;28;20618;-69
2023/04/21 05:21:26;;;;;;;45.77;32.47;;;8.00;99.90;;;;;;5093011;28;20179;-69
2023/04/21 05:23:55;;;;;;;44.50;32.20;;;8.30;99.90;;;;;;5092954;28;20172;-70
2023/04/21 05:26:21;;;;;;;39.57;30.83;;;8.60;99.90;;;;;;5092547;28;20250;-71
2023/04/21 05:28:47;;;;;;;37.17;29.20;;;8.70;99.90;;;;;;5092492;28;20501;-69
2023/04/21 05:31:13;;;;;;;38.30;28.87;;;9.10;99.90;;;;;;5092627;28;20270;-72
2023/04/21 05:33:38;;;;;;;32.70;25.33;;;9.30;99.90;;;;;;5091961;28;20240;-71
2023/04/21 05:36:08;;;;;;;32.73;24.90;;;9.30;99.90;;;;;;5090888;28;20203;-71
2023/04/21 05:38:37;;;;;;;30.00;24.97;;;9.40;99.90;;;;;;5092337;28;20662;-71
2023/04/21 05:41:03;;;;;;;27.43;22.80;;;9.70;99.90;;;;;;5091717;28;20689;-71
2023/04/21 05:43:32;;;;;;;30.27;23.47;;;9.90;87.10;;;;;;5092208;28;20178;-71
2023/04/21 05:45:58;;;;;;;31.20;25.53;;;9.90;92.00;;;;;;5091956;28;20206;-70
2023/04/21 05:48:24;;;;;;;30.73;24.67;;;9.40;96.90;;;;;;5092437;28;20188;-70
2023/04/21 05:50:50;;;;;;;28.27;23.90;;;9.50;99.90;;;;;;5092208;28;20182;-71
2023/04/21 05:53:15;;;;;;;26.97;22.60;;;10.00;91.50;;;;;;5090729;28;20239;-71
2023/04/21 05:55:41;;;;;;;30.10;25.17;;;10.00;80.80;;;;;;5091196;28;20172;-72
2023/04/21 05:58:07;;;;;;;30.20;24.20;;;9.80;92.20;;;;;;5092090;28;20180;-70
2023/04/21 06:00:32;;;;;;;29.57;23.20;;;9.50;94.10;;;;;;5092056;28;20615;-71
2023/04/21 06:02:58;;;;;;;30.20;23.90;;;9.30;99.80;;;;;;5091884;28;20167;-71
2023/04/21 06:05:24;;;;;;;29.30;23.97;;;9.30;99.90;;;;;;5092009;28;20565;-71
2023/04/21 06:07:50;;;;;;;28.77;24.27;;;9.60;99.90;;;;;;5091583;28;20176;-70
2023/04/21 06:10:16;;;;;;;27.23;22.57;;;10.50;89.70;;;;;;5091403;28;20172;-71
2023/04/21 06:12:42;;;;;;;28.70;22.10;;;11.20;36.40;;;;;;5090273;28;20233;-70
2023/04/21 06:15:08;;;;;;;25.00;22.10;;;11.60;18.20;;;;;;5091792;28;20172;-70
2023/04/21 06:17:33;;;;;;;24.90;21.83;;;11.20;37.60;;;;;;5092117;28;20182;-69
2023/04/21 06:19:59;;;;;;;22.07;19.77;;;12.10;12.30;;;;;;5091875;28;20263;-70
2023/04/21 06:22:24;;;;;;;28.53;20.93;;;12.40;1.00;;;;;;5092249;28;20271;-70
2023/04/21 06:24:50;;;;;;;21.83;19.53;;;12.70;1.00;;;;;;5092036;28;20176;-71
2023/04/21 06:27:16;;;;;;;22.47;20.07;;;12.80;1.00;;;;;;5091410;28;20183;-70
2023/04/21 06:29:42;;;;;;;22.87;20.47;;;12.30;1.00;;;;;;5094670;28;20237;-71
2023/04/21 06:32:11;;;;;;;22.73;19.90;;;12.70;4.00;;;;;;5095706;28;20211;-71
2023/04/21 06:34:37;;;;;;;20.90;18.67;;;13.30;1.00;;;;;;5095690;28;20188;-71
2023/04/21 06:37:03;;;;;;;20.60;18.40;;;14.50;1.00;;;;;;5096050;28;20196;-70
2023/04/21 06:39:29;;;;;;;20.03;18.03;;;15.10;1.00;;;;;;5095323;28;20200;-72
2023/04/21 06:41:57;;;;;;;19.73;17.83;;;14.10;1.00;;;;;;5095298;28;20230;-71
2023/04/21 06:44:22;;;;;;;19.93;17.93;;;14.90;1.00;;;;;;5095061;28;21010;-71
2023/04/21 06:46:48;;;;;;;19.17;17.20;;;15.80;1.00;;;;;;5095278;28;20172;-72
2023/04/21 06:49:14;;;;;;;18.23;16.30;;;16.60;1.00;;;;;;5095506;28;20187;-72
2023/04/21 06:51:39;;;;;;;18.77;16.97;;;17.20;99.90;;;;;;5095443;28;20172;-72
2023/04/21 06:54:05;;;;;;;17.50;15.73;;;17.30;1.00;;;;;;5094680;28;20211;-72
2023/04/21 06:56:31;;;;;;;17.50;15.93;;;17.90;1.00;;;;;;5094876;28;20180;-72
2023/04/21 06:58:57;;;;;;;18.05;16.27;;;19.00;1.00;;;;;;5095467;28;20172;-72
2023/04/21 07:01:23;;;;;;;17.35;15.65;;;19.10;99.90;;;;;;5095320;28;20259;-71
2023/04/21 07:03:49;;;;;;;17.40;15.80;;;15.30;1.00;;;;;;5094790;28;20197;-72
2023/04/21 07:06:15;;;;;;;17.03;15.33;;;14.50;1.00;;;;;;5095561;28;20160;-71
2023/04/21 07:08:41;;;;;;;18.43;16.73;;;14.00;1.00;;;;;;5094953;28;20271;-70
2023/04/21 07:11:07;;;;;;;16.63;15.03;;;14.10;1.00;;;;;;5094887;28;20160;-71
2023/04/21 07:13:32;;;;;;;16.47;14.87;;;13.60;1.00;;;;;;5095661;28;20203;-71
2023/04/21 07:15:58;;;;;;;15.20;13.47;;;14.10;1.00;;;;;;5095283;28;20179;-71
2023/04/21 07:18:24;;;;;;;14.83;13.20;;;14.80;1.00;;;;;;5095058;28;20702;-70
2023/04/21 07:20:49;;;;;;;16.27;14.67;;;13.80;1.00;;;;;;5094453;28;20250;-71
2023/04/21 07:23:15;;;;;;;15.77;14.27;;;13.90;1.00;;;;;;5094552;28;20531;-71
2023/04/21 07:25:41;;;;;;;14.83;13.33;;;14.20;1.00;;;;;;5093291;28;20172;-71
2023/04/21 07:28:07;;;;;;;16.63;15.10;;;14.20;1.00;;;;;;5094660;28;20207;-71
2023/04/21 07:30:32;;;;;;;16.37;14.73;;;14.90;1.00;;;;;;5094841;28;20175;-71
2023/04/21 07:32:58;;;;;;;16.17;14.57;;;15.50;1.00;;;;;;5094952;28;20219;-71
2023/04/21 07:35:24;;;;;;;16.37;14.67;;;15.70;1.00;;;;;;5094450;28;20267;-70
2023/04/21 07:37:50;;;;;;;15.27;13.87;;;15.70;1.00;;;;;;5094837;28;20202;-72
2023/04/21 07:40:16;;;;;;;16.27;14.57;;;15.70;1.00;;;;;;5093809;28;20182;-72
2023/04/21 07:42:41;;;;;;;16.53;15.03;;;15.80;1.00;;;;;;5094005;28;20223;-71
2023/04/21 07:45:07;;;;;;;15.07;13.53;;;16.20;99.90;;;;;;5094533;28;20199;-71
2023/04/21 07:47:33;;;;;;;15.67;14.13;;;15.70;1.00;;;;;;5094381;28;20172;-72
2023/04/21 07:49:59;;;;;;;14.73;13.33;;;15.40;1.00;;;;;;5094241;28;20616;-72
2023/04/21 07:52:24;;;;;;;16.00;14.50;;;15.60;1.00;;;;;;5094561;28;20199;-71
2023/04/21 07:54:50;;;;;;;13.57;12.37;;;16.10;99.90;;;;;;5094407;28;20182;-71
2023/04/21 07:57:16;;;;;;;13.77;12.50;;;16.40;99.90;;;;;;5094482;28;20160;-71
2023/04/21 07:59:42;;;;;;;14.27;12.77;;;17.30;1.00;;;;;;5094126;28;20168;-71
2023/04/21 08:02:07;;;;;;;14.55;13.15;;;17.70;1.00;;;;;;5094515;28;20702;-70
2023/04/21 08:04:33;;;;;;;13.45;12.23;;;17.60;99.90;;;;;;5094605;28;20179;-72
2023/04/21 08:06:59;;;;;;;14.20;12.80;;;17.30;1.00;;;;;;5093747;28;20168;-71
2023/04/21 08:09:25;;;;;;;12.90;11.70;;;17.40;99.90;;;;;;5094113;28;20196;-71
2023/04/21 08:11:51;;;;;;;13.20;12.07;;;17.10;1.00;;;;;;5093945;28;20192;-71
2023/04/21 08:14:16;;;;;;;13.80;12.57;;;17.00;1.00;;;;;;5094623;28;20187;-71
2023/04/21 08:16:42;;;;;;;13.25;12.05;;;17.20;95.50;;;;;;5093594;28;20160;-71
2023/04/21 08:19:08;;;;;;;13.43;12.30;;;18.40;1.00;;;;;;5093567;28;20168;-71
2023/04/21 08:21:35;;;;;;;12.90;11.80;;;19.50;99.90;;;;;;5093895;28;20194;-71
2023/04/21 08:24:00;;;;;;;13.27;12.07;;;20.10;99.90;;;;;;5093970;28;20282;-72
2023/04/21 08:26:28;;;;;;;12.77;11.57;;;20.40;99.90;;;;;;5094171;28;20164;-71
2023/04/21 08:28:58;;;;;;;11.48;10.48;;;19.80;99.90;;;;;;5094436;28;20639;-73
2023/04/21 08:31:24;;;;;;;11.88;10.88;;;18.20;99.90;;;;;;5092501;28;20214;-71
2023/04/21 08:33:50;;;;;;;11.90;10.90;;;18.80;1.00;;;;;;5093617;28;20235;-71
2023/04/21 08:36:15;;;;;;;11.15;10.15;;;19.50;99.90;;;;;;5093476;28;20620;-71
2023/04/21 08:38:44;;;;;;;10.70;9.68;;;19.40;1.00;;;;;;5093791;28;20172;-71
2023/04/21 08:41:10;;;;;;;11.48;10.55;;;19.90;99.90;;;;;;5093962;28;20231;-70
2023/04/21 08:43:35;;;;;;;11.40;10.50;;;19.70;99.90;;;;;;5093922;28;20624;-71
2023/04/21 08:46:06;;;;;;;10.77;9.88;;;19.80;99.90;;;;;;5092844;28;20171;-71
2023/04/21 08:48:35;;;;;;;11.82;10.82;;;20.30;99.90;;;;;;5093055;28;20172;-71
2023/04/21 08:51:01;;;;;;;11.63;10.68;;;19.60;1.00;;;;;;5092963;28;20164;-72
2023/04/21 08:53:27;;;;;;;12.07;10.63;;;18.00;1.00;;;;;;5092892;28;20283;-71
2023/04/21 08:55:55;;;;;;;12.53;11.43;;;16.30;99.90;;;;;;5093106;28;20643;-70
2023/04/21 08:58:21;;;;;;;12.57;11.30;;;16.40;1.00;;;;;;5093183;28;20208;-72
2023/04/21 09:00:50;;;;;;;12.45;11.30;;;17.20;1.00;;;;;;5093559;28;20164;-71
2023/04/21 09:03:26;;;;;;;12.05;10.95;;;18.60;99.90;;;;;;5092883;28;20222;-72
2023/04/21 09:06:06;;;;;;;12.50;11.27;;;20.20;1.00;;;;;;5092783;28;20588;-72
2023/04/21 09:08:33;;;;;;;12.50;11.30;;;20.30;1.00;;;;;;5093038;28;20160;-71
2023/04/21 09:11:00;;;;;;;14.13;12.82;;;18.40;1.00;;;;;;5092681;28;20313;-71
2023/04/21 09:13:34;;;;;;;13.50;12.18;;;17.20;99.90;;;;;;5093142;28;20282;-71
2023/04/21 09:16:02;;;;;;;13.27;11.93;;;18.70;1.00;;;;;;5093295;28;20164;-71
2023/04/21 09:18:35;;;;;;;13.38;12.15;;;19.60;1.00;;;;;;5092732;28;20705;-71
2023/04/21 09:21:09;;;;;;;12.60;11.50;;;20.00;99.90;;;;;;5092657;28;20163;-69
2023/04/21 09:23:51;;;;;;;12.73;11.52;;;18.60;99.90;;;;;;5092832;28;20182;-71
2023/04/21 09:26:18;;;;;;;13.48;12.27;;;18.40;1.00;;;;;;5093075;28;20623;-70
2023/04/21 09:28:48;;;;;;;13.27;12.18;;;18.10;1.00;;;;;;5093109;28;20175;-71
2023/04/21 09:31:18;;;;;;;12.63;11.52;;;19.10;58.60;;;;;;5092660;28;20187;-71
2023/04/21 09:33:52;;;;;;;12.40;11.25;;;19.40;1.00;;;;;;5091727;28;20211;-72
2023/04/21 09:36:26;;;;;;;12.43;11.32;;;19.10;1.00;;;;;;5091309;28;20172;-72
2023/04/21 09:39:02;;;;;;;12.10;11.00;;;19.10;99.90;;;;;;5092707;28;20175;-71
2023/04/21 09:41:30;;;;;;;12.40;11.23;;;18.60;99.90;;;;;;5092254;28;20306;-71
2023/04/21 09:44:00;;;;;;;11.57;10.63;;;18.40;99.90;;;;;;5092032;28;20195;-71
2023/04/21 09:46:29;;;;;;;11.70;10.55;;;18.10;1.00;;;;;;5090767;28;20568;-72
2023/04/21 09:48:55;;;;;;;12.23;11.05;;;18.40;99.90;;;;;;5092364;28;20190;-71
2023/04/21 09:51:23;;;;;;;11.88;10.77;;;18.20;99.90;;;;;;5092043;28;20172;-71
2023/04/21 09:53:52;;;;;;;12.18;11.07;;;18.20;99.90;;;;;;5091759;28;20224;-71
2023/04/21 09:56:21;;;;;;;10.82;9.93;;;18.30;1.00;;;;;;5092396;28;20179;-71
2023/04/21 09:58:53;;;;;;;11.32;10.32;;;18.40;22.00;;;;;;5092883;28;20225;-72
2023/04/21 10:01:19;;;;;;;11.48;10.38;;;18.50;35.80;;;;;;5092522;28;20254;-71
2023/04/21 10:03:47;;;;;;;11.50;10.35;;;18.80;1.00;;;;;;5093855;28;20237;-71
2023/04/21 10:06:13;;;;;;;10.27;9.32;;;18.80;1.00;;;;;;5095907;28;20180;-71
2023/04/21 10:08:39;;;;;;;11.07;10.02;;;18.80;99.90;;;;;;5096338;28;20172;-71
2023/04/21 10:11:06;;;;;;;11.35;10.25;;;18.50;1.00;;;;;;5095593;28;20180;-71
2023/04/21 10:13:32;;;;;;;10.43;9.50;;;18.90;1.00;;;;;;5095916;28;20298;-71
2023/04/21 10:16:03;;;;;;;11.27;10.15;;;18.80;11.00;;;;;;5096403;28;20176;-71
2023/04/21 10:18:29;;;;;;;10.52;9.73;;;18.30;1.00;;;;;;5096122;28;20185;-70
2023/04/21 10:21:01;;;;;;;11.82;10.73;;;18.70;1.00;;;;;;5095464;28;20180;-71
2023/04/21 10:23:43;;;;;;;11.70;10.68;;;18.80;99.90;;;;;;5094908;28;20233;-71
2023/04/21 10:26:16;;;;;;;13.00;11.80;;;18.80;22.30;;;;;;5095599;28;20160;-71
2023/04/21 10:28:59;;;;;;;11.30;10.30;;;17.90;99.90;;;;;;5096380;28;20172;-70
2023/04/21 10:31:35;;;;;;;10.63;9.68;;;17.30;1.00;;;;;;5096197;28;20175;-71
2023/04/21 10:36:36;;;;;;;9.80;8.90;;;18.00;47.60;;;;;;5095951;28;20182;-71
2023/04/21 10:39:03;;;;;;;10.65;9.60;;;18.40;99.90;;;;;;5095907;28;20168;-71
2023/04/21 10:41:33;;;;;;;11.10;10.10;;;17.90;99.90;;;;;;5094821;28;20701;-71
2023/04/21 10:44:12;;;;;;;11.32;10.43;;;18.60;99.90;;;;;;5095747;28;20253;-71
2023/04/21 10:46:39;;;;;;;12.57;11.43;;;18.60;1.00;;;;;;5095306;28;20314;-70
2023/04/21 10:49:10;;;;;;;11.65;9.93;;;17.50;1.00;;;;;;5096167;28;20191;-70
2023/04/21 10:52:03;;;;;;;10.77;9.70;;;17.80;99.90;;;;;;5094866;28;20229;-71
2023/04/21 10:54:52;;;;;;;10.45;9.50;;;17.80;1.00;;;;;;5095548;28;20176;-70
2023/04/21 10:57:19;;;;;;;11.43;9.23;;;18.30;1.00;;;;;;5085590;28;20241;-71
2023/04/21 10:59:46;;;;;;;10.43;9.43;;;18.00;1.00;;;;;;5095571;28;20623;-70
2023/04/21 11:02:14;;;;;;;10.20;9.30;;;17.30;99.90;;;;;;5094333;28;20204;-70
2023/04/21 11:04:43;;;;;;;9.60;8.60;;;17.50;99.90;;;;;;5094312;28;20332;-69
2023/04/21 11:07:15;;;;;;;9.32;8.55;;;17.70;1.00;;;;;;5095139;28;20194;-69
2023/04/21 11:09:45;;;;;;;10.98;9.88;;;17.50;1.00;;;;;;5095444;28;20182;-70
2023/04/21 11:12:17;;;;;;;10.20;9.30;;;17.50;8.50;;;;;;5093663;28;20200;-71
2023/04/21 11:14:50;;;;;;;11.23;10.23;;;17.70;1.00;;;;;;5094667;28;20251;-71
2023/04/21 11:17:17;;;;;;;11.43;10.32;;;17.50;99.90;;;;;;5095012;28;20599;-71
2023/04/21 11:19:53;;;;;;;10.15;9.25;;;17.40;1.00;;;;;;5095293;28;20172;-70
2023/04/21 11:22:20;;;;;;;10.90;9.02;;;17.70;1.00;;;;;;5094689;28;20185;-70
2023/04/21 11:24:52;;;;;;;10.32;9.38;;;17.60;99.90;;;;;;5094182;28;20175;-70
2023/04/21 11:27:27;;;;;;;8.77;7.97;;;17.60;1.00;;;;;;5094527;28;20167;-70
2023/04/21 11:29:53;;;;;;;9.50;8.63;;;17.50;28.60;;;;;;5093574;28;20176;-70
2023/04/21 11:32:20;;;;;;;8.43;7.60;;;18.20;99.90;;;;;;5094382;28;20298;-69
2023/04/21 11:34:47;;;;;;;7.80;7.03;;;18.90;1.00;;;;;;5094272;28;20176;-70
2023/04/21 11:37:22;;;;;;;7.50;6.80;;;17.90;1.00;;;;;;5094376;28;20183;-70
2023/04/21 11:39:48;;;;;;;8.63;7.82;;;17.30;11.70;;;;;;5094911;28;20171;-70
2023/04/21 11:42:20;;;;;;;10.23;9.32;;;17.70;99.90;;;;;;5094505;28;20749;-70
2023/04/21 11:44:46;;;;;;;9.65;8.60;;;18.00;99.90;;;;;;5094886;28;20168;-71
2023/04/21 11:47:16;;;;;;;8.35;7.57;;;18.10;1.00;;;;;;5094259;28;20186;-71
2023/04/21 11:50:00;;;;;;;9.35;8.10;;;18.00;95.40;;;;;;5094597;28;20187;-70
2023/04/21 11:52:27;;;;;;;8.93;8.20;;;17.90;99.90;;;;;;5094134;28;20298;-71
2023/04/21 11:54:58;;;;;;;8.88;8.10;;;17.80;1.00;;;;;;5093560;28;20228;-71
2023/04/21 11:57:24;;;;;;;11.23;10.02;;;17.60;99.90;;;;;;5094002;28;20174;-70
2023/04/21 11:59:50;;;;;;;15.25;9.57;;;17.70;99.90;;;;;;5093848;28;20275;-69
2023/04/21 12:02:30;;;;;;;10.48;9.48;;;17.50;84.50;;;;;;5094258;28;20221;-70
2023/04/21 12:05:04;;;;;;;9.63;8.75;;;17.50;1.00;;;;;;5094513;28;20529;-71
2023/04/21 12:07:37;;;;;;;9.40;8.45;;;17.90;99.90;;;;;;5094474;28;20185;-70
2023/04/21 12:10:14;;;;;;;13.40;12.00;;;18.10;99.90;;;;;;5093948;28;20249;-70
2023/04/21 12:12:41;;;;;;;10.27;7.80;;;18.00;18.40;;;;;;5094149;28;20234;-70
2023/04/21 12:15:08;;;;;;;9.07;8.25;;;17.70;99.90;;;;;;5093340;28;20172;-70
2023/04/21 12:17:43;;;;;;;10.07;9.07;;;18.10;1.00;;;;;;5093700;28;20222;-70
2023/04/21 12:20:09;;;;;;;9.20;8.40;;;18.00;1.00;;;;;;5093905;28;20221;-70
2023/04/21 12:22:34;;;;;;;8.77;8.00;;;17.40;99.90;;;;;;5093735;28;20168;-70
2023/04/21 12:25:00;;;;;;;7.70;7.00;;;17.50;99.90;;;;;;5094223;28;20175;-71
2023/04/21 12:27:27;;;;;;;7.00;6.37;;;17.40;1.00;;;;;;5093600;28;20172;-71
2023/04/21 12:29:52;;;;;;;8.60;7.57;;;17.70;1.00;;;;;;5091943;28;20514;-70
2023/04/21 12:32:19;;;;;;;6.70;6.10;;;17.80;1.00;;;;;;5092182;28;20247;-71
2023/04/21 12:34:50;;;;;;;7.73;7.00;;;17.80;99.90;;;;;;5093829;28;20183;-70
2023/04/21 12:37:18;;;;;;;8.70;7.90;;;17.70;1.00;;;;;;5093502;28;20179;-71
2023/04/21 12:39:43;;;;;;;9.90;8.93;;;17.20;1.00;;;;;;5093893;28;20252;-71
2023/04/21 12:42:09;;;;;;;9.37;7.10;;;17.40;1.00;;;;;;5093035;28;20347;-71